Time;durP1;ratioP1;P1;durP2;ratioP2;P2;SDS_P1;SDS_P2;PMS_P1;PMS_P2;Temp;Humidity;BMP_temperature;BMP_pressure;BME280_temperature;BME280_humidity;BME280_pressure;Samples;Min_cycle;Max_cycle;Signal;HPM_P1;HPM_P2
2021/04/11 02:45:32;;;;;;;8.95;2.75;;;11.00;62.20;;;;;;5564837;24;20153;-69
2021/04/11 02:48:02;;;;;;;11.15;3.00;;;11.00;62.00;;;;;;4757652;30;20028;-69
2021/04/11 02:50:36;;;;;;;8.63;2.60;;;11.00;62.00;;;;;;4759400;30;20030;-69
2021/04/11 02:53:19;;;;;;;11.38;2.53;;;11.00;61.90;;;;;;4760672;30;20260;-69
2021/04/11 02:55:47;;;;;;;6.32;2.70;;;11.00;62.20;;;;;;4760537;30;20126;-69
2021/04/11 02:58:18;;;;;;;5.78;2.75;;;11.00;62.30;;;;;;4759394;30;20036;-69
2021/04/11 03:01:13;;;;;;;9.55;3.70;;;10.90;62.50;;;;;;4749149;30;20021;-69
2021/04/11 03:03:41;;;;;;;15.50;2.97;;;10.90;63.00;;;;;;4770135;30;20044;-70
2021/04/11 03:06:13;;;;;;;8.32;3.13;;;10.80;62.70;;;;;;4759523;30;20028;-69
2021/04/11 03:08:41;;;;;;;9.88;2.92;;;10.80;63.20;;;;;;4760382;30;20052;-69
2021/04/11 03:11:33;;;;;;;8.45;2.80;;;10.80;63.30;;;;;;4759340;30;20357;-69
2021/04/11 03:14:04;;;;;;;5.85;2.60;;;10.80;64.10;;;;;;4760848;30;20386;-69
2021/04/11 03:16:35;;;;;;;11.43;2.85;;;10.80;63.90;;;;;;4760151;30;20024;-69
2021/04/11 03:19:03;;;;;;;5.55;2.70;;;10.80;63.90;;;;;;4759436;30;20081;-69
2021/04/11 03:21:30;;;;;;;5.53;2.50;;;10.80;64.00;;;;;;4759147;30;20028;-69
2021/04/11 03:23:58;;;;;;;10.27;2.80;;;10.80;64.10;;;;;;4759204;30;20036;-69
2021/04/11 03:26:38;;;;;;;9.88;2.97;;;10.80;64.20;;;;;;4760583;30;20035;-69
2021/04/11 03:29:16;;;;;;;7.90;2.75;;;10.80;64.70;;;;;;4758761;30;20029;-69
2021/04/11 03:31:55;;;;;;;6.40;2.70;;;10.70;64.80;;;;;;4742821;30;20032;-69
2021/04/11 03:34:23;;;;;;;10.27;2.65;;;10.70;65.10;;;;;;4749079;30;20144;-69
2021/04/11 03:36:52;;;;;;;10.65;3.60;;;10.70;65.20;;;;;;4758871;30;20035;-69
2021/04/11 03:39:19;;;;;;;9.82;3.20;;;10.70;65.20;;;;;;4755708;30;20043;-69
2021/04/11 03:41:47;;;;;;;5.68;2.35;;;10.70;65.30;;;;;;4761308;30;20077;-69
2021/04/11 03:44:32;;;;;;;6.35;2.65;;;10.70;65.20;;;;;;4763510;30;20039;-69
2021/04/11 03:47:17;;;;;;;7.43;2.67;;;10.70;65.70;;;;;;4758491;30;20056;-69
2021/04/11 03:50:06;;;;;;;7.05;2.78;;;10.70;65.40;;;;;;4745662;30;20037;-69
2021/04/11 03:52:58;;;;;;;5.35;2.35;;;10.70;65.80;;;;;;4744311;30;20342;-69
2021/04/11 03:55:26;;;;;;;3.88;2.38;;;10.70;65.80;;;;;;4744362;30;20040;-69
2021/04/11 03:57:58;;;;;;;6.63;2.83;;;10.70;65.70;;;;;;4758841;30;20032;-69
2021/04/11 04:00:46;;;;;;;6.53;2.58;;;10.70;65.70;;;;;;4745608;30;20095;-69
2021/04/11 04:03:15;;;;;;;11.18;3.20;;;10.60;66.00;;;;;;4740737;30;20181;-69
2021/04/11 04:05:43;;;;;;;10.27;3.22;;;10.60;66.00;;;;;;4744331;30;20153;-69
2021/04/11 04:08:12;;;;;;;6.07;2.58;;;10.70;66.10;;;;;;4744986;30;20040;-69
2021/04/11 04:10:42;;;;;;;9.63;3.22;;;10.70;66.00;;;;;;4745179;30;20279;-69
2021/04/11 04:13:47;;;;;;;11.13;2.70;;;10.70;66.00;;;;;;4740537;30;20036;-69
2021/04/11 04:16:34;;;;;;;6.70;2.80;;;10.60;65.90;;;;;;4740566;30;20098;-68
2021/04/11 04:19:37;;;;;;;5.35;2.80;;;10.60;66.20;;;;;;4758588;30;20061;-69
2021/04/11 04:22:18;;;;;;;5.70;2.42;;;10.60;66.20;;;;;;4740792;30;20574;-69
2021/04/11 04:25:35;;;;;;;7.50;2.75;;;10.60;66.20;;;;;;4730348;30;20024;-69
2021/04/11 04:28:26;;;;;;;9.80;2.60;;;10.60;66.70;;;;;;4743810;30;20041;-69
2021/04/11 04:31:25;;;;;;;8.13;3.03;;;10.60;66.80;;;;;;4743766;30;20350;-69
2021/04/11 04:33:58;;;;;;;10.05;3.05;;;10.60;67.00;;;;;;4738687;30;20116;-69
2021/04/11 04:36:35;;;;;;;8.27;3.33;;;10.60;66.80;;;;;;4742009;30;20033;-69
2021/04/11 04:39:14;;;;;;;7.47;2.45;;;10.60;67.00;;;;;;4733987;30;20091;-69
2021/04/11 04:41:43;;;;;;;6.38;2.72;;;10.60;66.90;;;;;;4728018;30;20036;-69
2021/04/11 04:44:16;;;;;;;14.00;3.13;;;10.70;67.00;;;;;;4714272;30;20116;-69
2021/04/11 04:47:17;;;;;;;5.95;2.63;;;10.70;67.10;;;;;;4707443;30;20056;-69
2021/04/11 04:49:57;;;;;;;8.77;2.65;;;10.70;67.60;;;;;;4728024;30;20415;-69
2021/04/11 04:52:27;;;;;;;7.57;3.13;;;10.70;67.60;;;;;;4726634;30;20083;-69
2021/04/11 04:55:03;;;;;;;8.00;3.15;;;10.70;67.50;;;;;;4727835;30;20078;-69
2021/04/11 04:57:38;;;;;;;8.27;3.10;;;10.80;67.70;;;;;;4713486;30;20056;-69
2021/04/11 05:00:13;;;;;;;12.23;3.45;;;10.80;67.40;;;;;;4742583;30;20037;-69
2021/04/11 05:03:13;;;;;;;9.63;2.90;;;10.80;67.50;;;;;;4727128;30;20067;-69
2021/04/11 05:06:08;;;;;;;10.95;3.50;;;10.90;67.40;;;;;;4727893;30;20335;-69
2021/04/11 05:08:48;;;;;;;7.40;2.95;;;10.90;67.70;;;;;;4742221;30;20223;-69
2021/04/11 05:11:39;;;;;;;15.88;3.38;;;10.90;67.50;;;;;;4751338;30;20045;-69
2021/04/11 05:14:13;;;;;;;7.35;2.85;;;11.00;67.70;;;;;;4744314;30;20036;-69
2021/04/11 05:16:47;;;;;;;10.43;3.08;;;11.00;67.50;;;;;;4742333;30;20040;-69
2021/04/11 05:19:24;;;;;;;8.55;3.22;;;11.10;67.80;;;;;;4728395;30;20036;-69
2021/04/11 05:22:20;;;;;;;12.23;3.67;;;11.10;67.50;;;;;;4738329;30;20094;-69
2021/04/11 05:24:57;;;;;;;8.90;3.58;;;11.20;68.00;;;;;;4742843;30;20074;-69
2021/04/11 05:27:53;;;;;;;13.48;3.50;;;11.20;67.60;;;;;;4742875;30;20097;-69
2021/04/11 05:30:28;;;;;;;6.25;2.50;;;11.20;67.50;;;;;;4738608;30;20056;-69
2021/04/11 05:32:54;;;;;;;8.80;2.75;;;11.20;67.30;;;;;;4743485;30;20029;-69
2021/04/11 05:35:21;;;;;;;9.20;3.17;;;11.30;67.10;;;;;;4743893;30;20074;-69
2021/04/11 05:38:08;;;;;;;10.07;3.25;;;11.40;67.30;;;;;;4743899;30;20039;-69
2021/04/11 05:40:36;;;;;;;;;;;11.40;67.20;;;;;;4741495;30;20078;-69
2021/04/11 05:43:06;;;;;;;8.65;3.20;;;11.60;67.30;;;;;;4757345;30;19984;-69
2021/04/11 05:45:43;;;;;;;9.48;3.10;;;11.60;66.60;;;;;;4743496;30;20048;-69
2021/04/11 05:48:33;;;;;;;9.00;3.10;;;11.70;66.50;;;;;;4742583;30;20036;-69
2021/04/11 05:51:02;;;;;;;7.43;2.97;;;11.70;66.50;;;;;;4739937;30;20032;-69
2021/04/11 05:53:41;;;;;;;7.03;2.92;;;11.80;66.20;;;;;;4743440;30;20335;-69
2021/04/11 05:56:16;;;;;;;4.45;2.80;;;11.90;66.30;;;;;;4742075;30;20083;-70
2021/04/11 05:58:48;;;;;;;5.32;2.80;;;11.90;65.90;;;;;;4740008;30;20047;-70
2021/04/11 06:01:19;;;;;;;10.18;2.85;;;12.00;65.60;;;;;;4742322;30;20052;-69
2021/04/11 06:04:10;;;;;;;10.05;3.10;;;12.10;65.70;;;;;;4741437;30;20208;-69
2021/04/11 06:07:00;;;;;;;8.70;3.22;;;12.10;65.50;;;;;;4764929;30;20089;-69
2021/04/11 06:09:39;;;;;;;8.27;2.65;;;12.20;65.30;;;;;;4764800;30;20082;-69
2021/04/11 06:12:10;;;;;;;14.70;3.50;;;12.30;65.30;;;;;;4768280;30;20040;-69
2021/04/11 06:14:36;;;;;;;5.97;2.67;;;12.40;64.80;;;;;;4772413;30;20095;-69
2021/04/11 06:17:09;;;;;;;8.93;3.50;;;12.50;64.90;;;;;;4750714;30;20102;-69
2021/04/11 06:19:35;;;;;;;7.97;3.25;;;12.50;64.50;;;;;;4764394;30;20038;-69
2021/04/11 06:22:28;;;;;;;6.18;2.80;;;12.50;63.80;;;;;;4752945;30;20091;-69
2021/04/11 06:25:01;;;;;;;10.05;3.33;;;12.50;64.60;;;;;;4764417;30;20028;-69
2021/04/11 06:27:33;;;;;;;8.00;2.97;;;12.60;63.80;;;;;;4767623;30;20177;-69
2021/04/11 06:30:16;;;;;;;7.20;2.85;;;12.70;63.90;;;;;;4758419;30;20442;-70
2021/04/11 06:32:56;;;;;;;10.93;3.45;;;12.70;63.30;;;;;;4758480;30;20251;-69
2021/04/11 06:35:29;;;;;;;6.82;2.58;;;12.80;63.40;;;;;;4745218;30;20278;-70
2021/04/11 06:37:58;;;;;;;11.43;3.95;;;12.90;62.90;;;;;;4751257;30;20094;-69
2021/04/11 06:40:54;;;;;;;11.65;2.92;;;13.10;63.10;;;;;;4750518;30;20032;-69
2021/04/11 06:43:49;;;;;;;;;;;13.20;62.20;;;;;;4756233;30;20048;-69
2021/04/11 06:46:23;;;;;;;11.88;2.88;;;13.20;62.10;;;;;;4751248;30;20248;-69
2021/04/11 06:49:18;;;;;;;15.63;3.13;;;13.20;61.70;;;;;;4744793;30;20028;-69
2021/04/11 06:51:47;;;;;;;18.85;3.50;;;13.20;61.70;;;;;;4735687;30;20062;-70
2021/04/11 06:54:37;;;;;;;12.60;2.85;;;13.20;61.70;;;;;;4753801;30;20044;-71
2021/04/11 06:57:15;;;;;;;62.92;5.45;;;13.30;62.20;;;;;;4751914;30;20102;-70
2021/04/11 07:00:07;;;;;;;10.68;3.35;;;13.40;61.90;;;;;;4754147;30;20029;-70
2021/04/11 07:02:54;;;;;;;9.35;3.00;;;13.50;61.90;;;;;;4740846;30;20032;-70
2021/04/11 07:05:47;;;;;;;8.75;3.08;;;13.60;61.10;;;;;;4748893;30;20036;-70
2021/04/11 07:08:42;;;;;;;13.25;3.00;;;13.70;61.10;;;;;;4735918;30;20165;-72
2021/04/11 07:11:48;;;;;;;9.13;3.78;;;13.90;60.80;;;;;;4700117;30;20046;-72
2021/04/11 07:14:26;;;;;;;26.80;4.38;;;14.20;61.30;;;;;;4697489;30;20030;-71
2021/04/11 07:17:25;;;;;;;8.18;2.60;;;14.30;59.40;;;;;;4704260;30;20077;-72
2021/04/11 07:20:09;;;;;;;8.13;2.90;;;14.50;58.80;;;;;;4702618;30;20063;-71
2021/04/11 07:23:03;;;;;;;9.52;2.80;;;14.60;58.90;;;;;;4662823;30;20038;-71
2021/04/11 07:25:42;;;;;;;12.95;3.28;;;14.80;58.70;;;;;;4674520;30;20100;-71
2021/04/11 07:28:29;;;;;;;7.88;3.03;;;14.80;58.00;;;;;;4673340;30;20104;-71
2021/04/11 07:31:19;;;;;;;13.20;4.85;;;14.90;58.00;;;;;;4672323;30;20079;-71
2021/04/11 07:34:06;;;;;;;8.77;3.53;;;14.80;57.40;;;;;;4672893;30;20054;-72
2021/04/11 07:37:03;;;;;;;14.15;4.93;;;14.80;57.00;;;;;;4673837;30;20038;-72
2021/04/11 07:39:38;;;;;;;10.15;4.78;;;14.80;57.70;;;;;;4673818;30;20053;-72
2021/04/11 07:42:09;;;;;;;22.05;4.97;;;14.80;56.60;;;;;;4671471;30;20042;-73
2021/04/11 07:44:51;;;;;;;72.55;8.02;;;14.90;57.30;;;;;;4673810;30;20046;-73
2021/04/11 07:47:36;;;;;;;9.30;3.45;;;15.00;58.30;;;;;;4701786;30;20079;-73
2021/04/11 07:50:10;;;;;;;6.30;3.22;;;15.20;57.80;;;;;;4745440;30;20090;-72
2021/04/11 07:53:11;;;;;;;7.10;2.95;;;15.40;56.80;;;;;;4745492;30;20035;-71
2021/04/11 07:55:39;;;;;;;5.78;2.92;;;15.60;55.80;;;;;;4742642;30;20032;-73
2021/04/11 07:58:13;;;;;;;9.57;3.13;;;15.80;56.10;;;;;;4744951;30;20044;-72
2021/04/11 08:00:51;;;;;;;7.65;3.20;;;16.00;55.90;;;;;;4744557;30;20097;-72
2021/04/11 08:03:25;;;;;;;5.65;2.60;;;16.20;54.70;;;;;;4745933;30;20037;-72
2021/04/11 08:06:09;;;;;;;7.45;3.47;;;16.40;53.50;;;;;;4742805;30;20312;-72
2021/04/11 08:08:44;;;;;;;13.68;3.30;;;16.50;53.00;;;;;;4758960;30;20108;-73
2021/04/11 08:11:22;;;;;;;4.75;2.45;;;16.60;52.40;;;;;;4756902;30;20083;-74
2021/04/11 08:14:19;;;;;;;9.45;2.60;;;16.60;52.20;;;;;;4729133;30;20060;-73
2021/04/11 08:17:12;;;;;;;8.93;2.50;;;16.70;51.30;;;;;;4738463;30;20085;-72
2021/04/11 08:19:46;;;;;;;7.60;2.50;;;16.70;51.10;;;;;;4745111;30;20315;-73
2021/04/11 08:22:40;;;;;;;7.30;2.63;;;16.60;51.80;;;;;;4743940;30;20044;-73
2021/04/11 08:25:37;;;;;;;9.02;2.63;;;16.60;50.90;;;;;;4739883;30;20036;-72
2021/04/11 08:28:14;;;;;;;17.95;3.38;;;16.60;52.90;;;;;;4738741;30;20143;-72
2021/04/11 08:30:58;;;;;;;17.02;3.45;;;16.70;52.80;;;;;;4744715;30;20032;-72
2021/04/11 08:33:54;;;;;;;7.85;2.50;;;16.80;52.40;;;;;;4743932;30;20040;-71
2021/04/11 08:36:50;;;;;;;6.88;3.00;;;16.90;52.20;;;;;;4736775;30;20346;-71
2021/04/11 08:39:27;;;;;;;9.32;2.55;;;17.10;51.60;;;;;;4742706;30;20044;-72
2021/04/11 08:41:53;;;;;;;6.53;2.47;;;17.20;49.90;;;;;;4741434;30;20055;-72
2021/04/11 08:44:33;;;;;;;7.40;2.38;;;17.30;50.30;;;;;;4742252;30;20068;-71
2021/04/11 08:47:22;;;;;;;10.77;2.90;;;17.40;50.00;;;;;;4726343;30;20048;-72
2021/04/11 08:50:04;;;;;;;5.95;2.42;;;17.60;51.10;;;;;;4742441;30;20037;-71
2021/04/11 08:52:56;;;;;;;5.85;3.10;;;17.80;49.50;;;;;;4728261;30;20067;-72
2021/04/11 08:55:54;;;;;;;5.95;2.50;;;17.80;49.00;;;;;;4738013;30;20037;-72
2021/04/11 08:58:53;;;;;;;4.72;2.45;;;18.00;49.00;;;;;;4741410;30;20040;-72
2021/04/11 09:01:35;;;;;;;8.00;2.53;;;18.20;48.70;;;;;;4740676;30;20375;-72
2021/04/11 09:04:27;;;;;;;4.55;2.15;;;18.40;48.70;;;;;;4727239;30;20418;-72
2021/04/11 09:07:16;;;;;;;8.68;2.47;;;18.80;46.60;;;;;;4737438;30;20048;-72
2021/04/11 09:09:54;;;;;;;7.60;2.67;;;19.20;46.10;;;;;;4726055;30;20020;-72
2021/04/11 09:13:00;;;;;;;8.23;2.78;;;19.70;45.80;;;;;;4741763;30;20098;-72
2021/04/11 09:16:00;;;;;;;4.13;2.33;;;20.00;44.00;;;;;;4740964;30;20055;-72
2021/04/11 09:18:51;;;;;;;4.68;2.47;;;20.40;42.40;;;;;;4739115;30;20025;-72
2021/04/11 09:21:34;;;;;;;7.13;2.42;;;20.60;41.90;;;;;;4744232;30;20104;-72
2021/04/11 09:24:12;;;;;;;6.25;2.28;;;20.70;41.50;;;;;;4744189;30;20075;-72
2021/04/11 09:26:46;;;;;;;9.80;2.38;;;21.10;42.20;;;;;;4737616;30;20028;-72
2021/04/11 09:29:27;;;;;;;5.43;2.20;;;21.30;40.30;;;;;;4744112;30;20100;-72
2021/04/11 09:31:59;;;;;;;8.40;2.30;;;21.20;41.80;;;;;;4756695;30;20049;-72
2021/04/11 09:34:58;;;;;;;3.22;2.15;;;21.00;39.70;;;;;;4743497;30;20025;-72
2021/04/11 09:37:48;;;;;;;7.20;3.10;;;21.10;40.00;;;;;;4741786;30;20043;-72
2021/04/11 09:40:36;;;;;;;10.40;2.45;;;21.20;39.30;;;;;;4743721;30;20466;-72
2021/04/11 09:43:24;;;;;;;4.70;2.00;;;21.30;39.20;;;;;;4738079;30;20044;-73
2021/04/11 09:46:09;;;;;;;5.85;2.30;;;21.40;39.20;;;;;;4743318;30;20132;-73
2021/04/11 09:49:12;;;;;;;4.28;1.98;;;21.40;39.30;;;;;;4742165;30;20037;-74
2021/04/11 09:52:15;;;;;;;12.45;2.70;;;21.40;39.40;;;;;;4742060;30;20032;-73
2021/04/11 09:54:45;;;;;;;4.82;2.17;;;21.50;38.60;;;;;;4742922;30;20303;-74
2021/04/11 09:57:34;;;;;;;6.93;2.25;;;21.30;38.10;;;;;;4743250;30;20095;-73
2021/04/11 10:00:29;;;;;;;4.13;2.03;;;21.10;39.30;;;;;;4739722;30;20025;-74
2021/04/11 10:03:28;;;;;;;5.00;1.80;;;20.90;40.50;;;;;;4753068;30;20044;-73
2021/04/11 10:06:30;;;;;;;4.40;2.42;;;20.80;39.70;;;;;;4722434;30;20045;-74
2021/04/11 10:09:20;;;;;;;7.45;2.80;;;20.70;40.10;;;;;;4709538;30;20040;-72
2021/04/11 10:12:18;;;;;;;6.82;2.72;;;20.50;39.60;;;;;;4722911;30;20286;-72
2021/04/11 10:14:53;;;;;;;8.73;2.10;;;20.40;40.90;;;;;;4709168;30;20036;-73
2021/04/11 10:17:36;;;;;;;6.68;2.55;;;20.50;40.40;;;;;;4722691;30;20061;-72
2021/04/11 10:20:23;;;;;;;5.35;2.05;;;20.80;40.70;;;;;;4724077;30;20096;-73
2021/04/11 10:22:58;;;;;;;5.82;2.08;;;20.80;41.00;;;;;;4723593;30;20068;-73
2021/04/11 10:25:40;;;;;;;5.15;2.22;;;20.80;40.30;;;;;;4723807;30;20049;-73
2021/04/11 10:28:19;;;;;;;9.70;2.17;;;20.70;40.30;;;;;;4723542;30;20051;-71
2021/04/11 10:30:53;;;;;;;6.07;2.70;;;20.70;40.10;;;;;;4723432;30;20414;-71
2021/04/11 10:33:30;;;;;;;6.95;2.00;;;20.70;40.40;;;;;;4708552;30;20041;-71
2021/04/11 10:36:05;;;;;;;5.78;2.25;;;20.70;40.60;;;;;;4716683;30;20072;-71
2021/04/11 10:38:59;;;;;;;7.80;1.75;;;20.90;40.70;;;;;;4723337;30;20273;-71
2021/04/11 10:41:31;;;;;;;5.18;1.50;;;20.90;40.40;;;;;;4709238;30;20033;-70
2021/04/11 10:44:06;;;;;;;3.30;1.45;;;21.00;41.20;;;;;;4733795;30;20041;-71
2021/04/11 10:46:35;;;;;;;4.57;1.85;;;20.90;40.30;;;;;;4737089;30;20049;-70
2021/04/11 10:49:19;;;;;;;3.05;1.65;;;20.80;40.00;;;;;;4742922;30;20085;-71
2021/04/11 10:52:08;;;;;;;5.50;1.58;;;20.70;40.00;;;;;;4746487;30;20044;-71
2021/04/11 10:54:43;;;;;;;8.18;1.95;;;20.60;40.70;;;;;;4745194;30;20036;-70
2021/04/11 10:57:33;;;;;;;5.75;1.40;;;20.60;40.40;;;;;;4746416;30;20032;-71
2021/04/11 11:00:05;;;;;;;3.90;1.58;;;20.50;40.10;;;;;;4746201;30;20028;-70
2021/04/11 11:02:54;;;;;;;8.70;1.52;;;20.30;40.90;;;;;;4745329;30;20319;-71
2021/04/11 11:05:19;;;;;;;4.03;2.13;;;20.10;41.40;;;;;;4744933;30;20055;-70
2021/04/11 11:08:26;;;;;;;5.47;1.73;;;20.20;42.00;;;;;;4746087;30;20029;-70
2021/04/11 11:11:07;;;;;;;6.75;1.95;;;20.20;41.00;;;;;;4742532;30;20047;-71
2021/04/11 11:13:44;;;;;;;9.15;2.10;;;20.30;41.50;;;;;;4744082;30;20146;-70
2021/04/11 11:16:36;;;;;;;7.22;2.22;;;20.40;41.00;;;;;;4713090;30;20064;-71
2021/04/11 11:19:01;;;;;;;5.95;1.98;;;20.70;40.10;;;;;;4744175;30;20075;-71
2021/04/11 11:21:57;;;;;;;5.05;1.55;;;21.20;40.50;;;;;;4745066;30;20036;-71
2021/04/11 11:24:51;;;;;;;3.30;1.52;;;21.90;39.40;;;;;;4727105;30;20159;-72
2021/04/11 11:27:37;;;;;;;3.72;1.70;;;22.60;37.70;;;;;;4741617;30;20083;-71
2021/04/11 11:30:33;;;;;;;4.27;1.23;;;23.40;35.80;;;;;;4674398;30;20046;-71
2021/04/11 11:33:47;;;;;;;5.50;1.40;;;24.20;34.90;;;;;;4648470;30;20314;-72
2021/04/11 11:36:40;;;;;;;3.92;1.77;;;24.70;33.50;;;;;;4639887;30;20155;-72
2021/04/11 11:39:08;;;;;;;10.65;1.92;;;25.10;34.00;;;;;;4640969;30;20043;-71
2021/04/11 11:42:12;;;;;;;3.42;1.88;;;25.40;32.10;;;;;;4641334;30;20060;-72
2021/04/11 11:44:57;;;;;;;2.92;1.42;;;25.80;31.20;;;;;;4646610;30;20314;-71
2021/04/11 11:48:03;;;;;;;3.28;1.70;;;26.30;30.20;;;;;;4659828;30;20074;-71
2021/04/11 11:50:36;;;;;;;3.03;1.55;;;27.00;30.70;;;;;;4660181;30;20046;-72
2021/04/11 11:53:23;;;;;;;7.82;1.63;;;27.10;29.70;;;;;;4657288;30;20060;-72
2021/04/11 11:56:18;;;;;;;9.13;1.48;;;27.20;29.30;;;;;;4642969;30;20045;-72
2021/04/11 11:59:05;;;;;;;2.30;1.20;;;27.50;28.90;;;;;;4655769;30;20145;-72
2021/04/11 12:01:39;;;;;;;5.25;1.10;;;27.40;29.60;;;;;;4661803;30;20289;-72
2021/04/11 12:04:15;;;;;;;2.55;1.15;;;27.70;29.10;;;;;;4660008;30;20130;-71
2021/04/11 12:06:48;;;;;;;1.77;1.10;;;27.90;28.20;;;;;;4665330;30;20046;-71
2021/04/11 12:09:31;;;;;;;5.60;1.40;;;28.20;27.60;;;;;;4704496;30;20052;-72
2021/04/11 12:12:26;;;;;;;4.05;1.48;;;28.00;28.10;;;;;;4745292;30;20151;-72
2021/04/11 12:15:33;;;;;;;2.85;1.48;;;27.80;28.40;;;;;;4741342;30;20102;-72
2021/04/11 12:18:08;;;;;;;4.65;1.50;;;27.50;28.30;;;;;;4742325;30;20287;-72
2021/04/11 12:20:45;;;;;;;3.00;1.20;;;27.20;28.70;;;;;;4742914;30;20274;-72
2021/04/11 12:23:24;;;;;;;2.53;1.70;;;27.10;29.00;;;;;;4742949;30;20036;-72
2021/04/11 12:25:50;;;;;;;3.25;1.20;;;26.80;29.40;;;;;;4742779;30;20081;-71
2021/04/11 12:28:25;;;;;;;2.42;1.17;;;26.80;28.80;;;;;;4742866;30;20067;-72
2021/04/11 12:30:54;;;;;;;6.93;1.20;;;26.40;29.00;;;;;;4742708;30;20056;-71
2021/04/11 12:33:49;;;;;;;2.75;1.17;;;26.10;29.60;;;;;;4727751;30;20043;-71
2021/04/11 12:36:34;;;;;;;2.07;1.00;;;25.70;30.70;;;;;;4742499;30;20042;-72
2021/04/11 12:39:21;;;;;;;4.80;1.10;;;25.20;31.40;;;;;;4742216;30;20415;-72
2021/04/11 12:42:05;;;;;;;2.45;0.82;;;24.80;31.90;;;;;;4742728;30;20082;-72
2021/04/11 12:44:40;;;;;;;2.90;1.20;;;24.60;32.90;;;;;;4738771;30;20050;-72
2021/04/11 12:47:17;;;;;;;4.53;1.10;;;24.30;32.60;;;;;;4726723;30;20512;-71
2021/04/11 12:50:04;;;;;;;7.55;2.55;;;24.00;34.10;;;;;;4713200;30;20224;-72
2021/04/11 12:52:58;;;;;;;2.72;1.20;;;23.80;34.10;;;;;;4738410;30;20067;-71
2021/04/11 12:55:31;;;;;;;1.95;0.80;;;23.70;34.70;;;;;;4744319;30;20025;-72
2021/04/11 12:58:17;;;;;;;7.13;1.33;;;23.40;34.90;;;;;;4743181;30;20048;-71
2021/04/11 13:01:02;;;;;;;2.70;0.93;;;23.30;35.10;;;;;;4743561;30;20220;-72
2021/04/11 13:03:44;;;;;;;2.33;1.15;;;23.20;35.10;;;;;;4742759;30;20032;-71
2021/04/11 13:06:12;;;;;;;1.70;0.90;;;23.10;35.40;;;;;;4743859;30;20021;-71
2021/04/11 13:09:08;;;;;;;4.18;1.10;;;23.00;35.60;;;;;;4744320;30;20036;-71
2021/04/11 13:11:47;;;;;;;8.65;1.23;;;22.80;35.70;;;;;;4744041;30;20312;-71
2021/04/11 13:14:27;;;;;;;3.45;0.82;;;22.60;36.20;;;;;;4743377;30;20060;-71
2021/04/11 13:17:00;;;;;;;2.25;0.75;;;22.40;36.90;;;;;;4743678;30;20040;-71
2021/04/11 13:19:31;;;;;;;7.28;1.00;;;22.30;35.70;;;;;;4742064;30;20064;-71
2021/04/11 13:22:08;;;;;;;1.90;1.20;;;22.30;36.40;;;;;;4737384;30;20131;-71
2021/04/11 13:24:44;;;;;;;3.97;1.48;;;22.10;36.20;;;;;;4740815;30;20034;-70
2021/04/11 13:27:32;;;;;;;1.30;1.10;;;22.10;37.20;;;;;;4743489;30;20075;-71
2021/04/11 13:30:10;;;;;;;5.18;1.00;;;22.10;37.40;;;;;;4743624;30;20094;-72
2021/04/11 13:32:41;;;;;;;10.70;1.35;;;22.10;36.90;;;;;;4757268;30;20032;-72
2021/04/11 13:35:25;;;;;;;2.63;0.93;;;22.00;37.00;;;;;;4743552;30;20060;-72
2021/04/11 13:38:01;;;;;;;6.70;1.13;;;22.00;37.50;;;;;;4742394;30;20121;-72
2021/04/11 13:40:29;;;;;;;2.38;1.00;;;22.00;37.60;;;;;;4757139;30;20060;-72
2021/04/11 13:43:13;;;;;;;3.83;1.00;;;22.00;37.60;;;;;;4743619;30;20247;-72
2021/04/11 13:45:45;;;;;;;2.30;1.10;;;22.10;37.50;;;;;;4742832;30;20049;-72
2021/04/11 13:48:32;;;;;;;6.95;1.25;;;22.10;37.40;;;;;;4743292;30;20032;-72
2021/04/11 13:51:22;;;;;;;4.45;1.27;;;22.00;37.60;;;;;;4741791;30;20033;-71
2021/04/11 13:54:09;;;;;;;4.78;1.00;;;22.00;37.80;;;;;;4739941;30;20549;-72
2021/04/11 13:57:10;;;;;;;3.80;1.38;;;22.00;37.70;;;;;;4743037;30;20079;-71
2021/04/11 13:59:45;;;;;;;5.18;1.10;;;22.00;37.30;;;;;;4739300;30;20059;-72
2021/04/11 14:02:20;;;;;;;5.03;0.80;;;22.00;38.10;;;;;;4742209;30;20047;-71
2021/04/11 14:05:05;;;;;;;4.43;1.15;;;21.90;37.90;;;;;;4742273;30;20095;-73
2021/04/11 14:07:37;;;;;;;3.53;1.10;;;21.90;37.30;;;;;;4741815;30;20315;-71
2021/04/11 14:10:30;;;;;;;2.53;0.85;;;21.80;37.60;;;;;;4743454;30;20156;-72
2021/04/11 14:13:22;;;;;;;4.30;1.10;;;21.90;37.90;;;;;;4741400;30;20044;-72
2021/04/11 14:16:02;;;;;;;6.57;0.98;;;21.80;37.90;;;;;;4743078;30;20035;-72
2021/04/11 14:18:43;;;;;;;2.85;1.30;;;21.70;38.40;;;;;;4741853;30;20033;-72
2021/04/11 14:21:14;;;;;;;3.05;1.30;;;21.60;38.60;;;;;;4737906;30;20033;-71
2021/04/11 14:23:57;;;;;;;2.85;1.05;;;21.50;38.00;;;;;;4740333;30;20044;-71
2021/04/11 14:26:43;;;;;;;2.72;1.00;;;21.50;37.90;;;;;;4741841;30;20039;-72
2021/04/11 14:29:43;;;;;;;3.60;0.83;;;21.30;38.40;;;;;;4742395;30;20041;-71
2021/04/11 14:32:33;;;;;;;2.80;1.27;;;21.10;38.30;;;;;;4742779;30;20029;-72
2021/04/11 14:35:30;;;;;;;1.48;0.90;;;21.10;39.10;;;;;;4753211;30;20044;-71
2021/04/11 14:38:19;;;;;;;2.85;0.90;;;21.00;38.70;;;;;;4742900;30;20028;-71
2021/04/11 14:41:17;;;;;;;4.78;0.65;;;20.90;39.20;;;;;;4736683;30;20319;-72
2021/04/11 14:43:50;;;;;;;5.55;0.98;;;20.80;38.90;;;;;;4737574;30;20063;-72
2021/04/11 14:46:38;;;;;;;3.10;0.80;;;20.80;39.00;;;;;;4737346;30;20065;-72
2021/04/11 14:49:11;;;;;;;3.40;1.20;;;20.80;39.00;;;;;;4741859;30;20040;-72
2021/04/11 14:52:05;;;;;;;3.58;1.10;;;20.80;39.10;;;;;;4743299;30;20223;-72
2021/04/11 14:54:45;;;;;;;4.30;0.80;;;20.90;39.00;;;;;;4743128;30;20054;-72
2021/04/11 14:57:33;;;;;;;2.03;1.00;;;21.00;39.20;;;;;;4756458;30;20036;-72
2021/04/11 15:00:11;;;;;;;4.60;0.90;;;21.00;39.50;;;;;;4741852;30;20032;-71
2021/04/11 15:03:27;;;;;;;3.47;0.80;;;21.10;38.80;;;;;;4742723;30;20037;-71
2021/04/11 15:06:19;;;;;;;1.63;1.05;;;21.10;39.00;;;;;;4740605;30;20255;-71
2021/04/11 15:09:00;;;;;;;1.77;0.50;;;20.90;39.20;;;;;;4726085;30;20040;-71
2021/04/11 15:11:34;;;;;;;2.40;0.80;;;20.90;39.10;;;;;;4740848;30;20421;-72
2021/04/11 15:14:09;;;;;;;2.45;0.70;;;20.80;39.10;;;;;;4727324;30;20389;-71
2021/04/11 15:16:52;;;;;;;2.80;1.10;;;20.80;39.70;;;;;;4739589;30;20298;-71
2021/04/11 15:19:30;;;;;;;2.88;0.90;;;20.80;38.90;;;;;;4740614;30;20060;-71
2021/04/11 15:22:12;;;;;;;3.20;1.00;;;20.70;39.00;;;;;;4740629;30;20238;-71
2021/04/11 15:24:47;;;;;;;2.97;0.90;;;20.70;39.60;;;;;;4740548;30;20049;-72
2021/04/11 15:27:29;;;;;;;5.07;1.00;;;20.70;39.60;;;;;;4740772;30;20263;-71
2021/04/11 15:30:18;;;;;;;2.83;1.10;;;20.70;40.00;;;;;;4723538;30;20331;-71
2021/04/11 15:33:13;;;;;;;1.30;0.65;;;20.70;39.80;;;;;;4740317;30;20043;-71
2021/04/11 15:36:11;;;;;;;4.97;0.85;;;20.70;39.90;;;;;;4735823;30;20040;-71
2021/04/11 15:39:06;;;;;;;19.13;2.38;;;20.70;40.00;;;;;;4745582;30;20150;-71
2021/04/11 15:41:50;;;;;;;4.50;1.00;;;20.70;39.50;;;;;;4741331;30;20041;-72
2021/04/11 15:44:27;;;;;;;1.35;0.73;;;20.60;39.70;;;;;;4745689;30;20216;-71
2021/04/11 15:47:19;;;;;;;7.70;1.05;;;20.50;39.40;;;;;;4745084;30;20064;-71
2021/04/11 15:49:47;;;;;;;3.03;1.00;;;20.50;40.10;;;;;;4740848;30;20031;-71
2021/04/11 15:52:41;;;;;;;3.75;0.70;;;20.50;40.20;;;;;;4744425;30;20316;-71
2021/04/11 15:55:34;;;;;;;82.25;5.45;;;20.60;39.70;;;;;;4744171;30;20033;-71
2021/04/11 15:58:19;;;;;;;26.33;1.63;;;20.60;40.10;;;;;;4758763;30;20087;-71
2021/04/11 16:00:58;;;;;;;5.25;1.67;;;20.50;40.10;;;;;;4745360;30;20096;-70
2021/04/11 16:03:54;;;;;;;1.80;1.02;;;20.50;40.50;;;;;;4743770;30;20020;-71
2021/04/11 16:06:29;;;;;;;8.43;1.00;;;20.40;40.20;;;;;;4739606;30;20032;-73
2021/04/11 16:09:18;;;;;;;2.38;0.40;;;20.30;40.40;;;;;;4758218;30;20129;-71
2021/04/11 16:12:09;;;;;;;4.78;0.80;;;20.30;40.90;;;;;;4746199;30;20066;-72
2021/04/11 16:14:59;;;;;;;3.25;0.90;;;20.30;41.00;;;;;;4746038;30;20033;-72
2021/04/11 16:17:34;;;;;;;1.70;0.98;;;20.20;40.80;;;;;;4728426;30;20037;-72
2021/04/11 16:20:27;;;;;;;3.78;0.80;;;20.10;40.90;;;;;;4759037;30;20038;-72
2021/04/11 16:23:18;;;;;;;1.10;0.80;;;20.00;40.80;;;;;;4750987;30;20048;-72
2021/04/11 16:26:04;;;;;;;3.72;1.13;;;20.00;41.00;;;;;;4744009;30;20128;-73
2021/04/11 16:28:46;;;;;;;8.10;1.23;;;19.90;41.40;;;;;;4745730;30;20032;-69
2021/04/11 16:31:39;;;;;;;1.52;0.85;;;19.90;42.70;;;;;;4742883;30;20096;-70
2021/04/11 16:34:14;;;;;;;3.40;0.98;;;19.80;42.60;;;;;;4744493;30;20064;-70
2021/04/11 16:37:06;;;;;;;1.70;0.80;;;19.70;42.40;;;;;;4745739;30;20056;-70
2021/04/11 16:39:58;;;;;;;1.92;1.10;;;19.70;42.70;;;;;;4730730;30;20048;-70
2021/04/11 16:42:47;;;;;;;2.97;1.10;;;19.60;42.60;;;;;;4733123;30;20052;-70
2021/04/11 16:45:22;;;;;;;5.18;1.65;;;19.60;42.80;;;;;;4743284;30;20466;-69
2021/04/11 16:48:22;;;;;;;1.30;0.80;;;19.40;43.00;;;;;;4730555;30;20041;-69
2021/04/11 16:51:08;;;;;;;4.35;0.95;;;19.40;43.50;;;;;;4733327;30;20078;-69